Time;durP1;ratioP1;P1;durP2;ratioP2;P2;SDS_P1;SDS_P2;PMS_P1;PMS_P2;Temp;Humidity;BMP_temperature;BMP_pressure;BME280_temperature;BME280_humidity;BME280_pressure;Samples;Min_cycle;Max_cycle;Signal;HPM_P1;HPM_P2
2019/09/04 00:01:21;;;;;;;5.9;2.1;;;;;;;14.99;63.48535;1008.019;;;;
2019/09/04 00:03:46;;;;;;;3.3;1.9;;;;;;;14.93;63.66113;1008.032;;;;
2019/09/04 00:06:11;;;;;;;3.4;1.9;;;;;;;14.97;63.63086;1008.007;;;;
2019/09/04 00:08:36;;;;;;;3.8;2;;;;;;;14.92;63.65918;1007.96;;;;
2019/09/04 00:11:01;;;;;;;4.7;2;;;;;;;14.87;64.03223;1007.955;;;;
2019/09/04 00:13:26;;;;;;;5;2;;;;;;;15.05;63.54883;1007.949;;;;
2019/09/04 00:15:52;;;;;;;4.1;1.9;;;;;;;14.96;63.82813;1007.968;;;;
2019/09/04 00:18:16;;;;;;;4.3;1.9;;;;;;;14.96;63.86133;1007.958;;;;
2019/09/04 00:20:42;;;;;;;8;2;;;;;;;14.87;64.27637;1007.954;;;;
2019/09/04 00:23:07;;;;;;;3.6;2.1;;;;;;;14.78;64.65723;1007.936;;;;
2019/09/04 00:25:32;;;;;;;3.9;2.1;;;;;;;14.8;64.69336;1007.918;;;;
2019/09/04 00:27:57;;;;;;;4.3;1.9;;;;;;;14.72;65.05078;1007.836;;;;
2019/09/04 00:30:22;;;;;;;6.4;2;;;;;;;14.67;65.28711;1007.869;;;;
2019/09/04 00:32:47;;;;;;;4.7;2.1;;;;;;;14.62;65.50977;1007.781;;;;
2019/09/04 00:35:13;;;;;;;4.4;2.1;;;;;;;14.7;65.38379;1007.833;;;;
2019/09/04 00:37:38;;;;;;;3.7;2;;;;;;;14.58;65.78223;1007.861;;;;
2019/09/04 00:40:03;;;;;;;3.3;2.2;;;;;;;14.57;65.72363;1007.821;;;;
2019/09/04 00:42:28;;;;;;;3.9;2;;;;;;;14.52;65.99219;1007.819;;;;
2019/09/04 00:44:53;;;;;;;5.1;2.2;;;;;;;14.65;65.6543;1007.815;;;;
2019/09/04 00:47:19;;;;;;;3.9;2.2;;;;;;;14.52;66.00488;1007.764;;;;
2019/09/04 00:49:44;;;;;;;3.1;2;;;;;;;14.44;65.94629;1007.783;;;;
2019/09/04 00:52:09;;;;;;;4.3;2.2;;;;;;;14.54;65.96094;1007.702;;;;
2019/09/04 00:54:35;;;;;;;4.9;2.2;;;;;;;14.36;66.47656;1007.651;;;;
2019/09/04 00:56:59;;;;;;;4.6;2.2;;;;;;;14.3;66.80176;1007.601;;;;
2019/09/04 00:59:24;;;;;;;3.5;2.3;;;;;;;14.44;66.44336;1007.633;;;;
2019/09/04 01:01:49;;;;;;;5;2.3;;;;;;;14.42;66.49707;1007.628;;;;
2019/09/04 01:04:14;;;;;;;4.7;1.9;;;;;;;14.29;66.96094;1007.575;;;;
2019/09/04 01:06:40;;;;;;;4.2;2.3;;;;;;;14.32;66.90918;1007.561;;;;
2019/09/04 01:09:05;;;;;;;3.5;2.3;;;;;;;14.37;66.77832;1007.506;;;;
2019/09/04 01:11:30;;;;;;;3.3;2.2;;;;;;;14.37;66.75586;1007.453;;;;
2019/09/04 01:13:55;;;;;;;4.6;2.2;;;;;;;14.33;66.93359;1007.396;;;;
2019/09/04 01:16:21;;;;;;;4.1;2;;;;;;;14.27;66.70605;1007.318;;;;
2019/09/04 01:18:46;;;;;;;4.9;2;;;;;;;14.26;67.25684;1007.367;;;;
2019/09/04 01:21:11;;;;;;;4.2;2;;;;;;;14.14;67.83887;1007.362;;;;
2019/09/04 01:23:36;;;;;;;4.1;2;;;;;;;14.16;67.78613;1007.361;;;;
2019/09/04 01:26:01;;;;;;;3.5;2.1;;;;;;;14.07;67.97852;1007.379;;;;
2019/09/04 01:28:26;;;;;;;4.2;2;;;;;;;14.13;67.69824;1007.397;;;;
2019/09/04 01:30:52;;;;;;;3.3;2.1;;;;;;;14.07;68.23242;1007.333;;;;
2019/09/04 01:33:17;;;;;;;5.5;2.3;;;;;;;14.03;68.44531;1007.308;;;;
2019/09/04 01:35:42;;;;;;;4.5;2.2;;;;;;;14.08;68.24512;1007.283;;;;
2019/09/04 01:38:07;;;;;;;4;2.2;;;;;;;14.03;68.45898;1007.276;;;;
2019/09/04 01:40:33;;;;;;;3.2;2.1;;;;;;;14.04;68.49316;1007.273;;;;
2019/09/04 01:42:58;;;;;;;4.4;1.9;;;;;;;13.96;68.83789;1007.274;;;;
2019/09/04 01:45:23;;;;;;;4.7;2.1;;;;;;;14.04;68.62012;1007.292;;;;
2019/09/04 01:47:48;;;;;;;4.7;2.2;;;;;;;14.05;68.44824;1007.234;;;;
2019/09/04 01:50:13;;;;;;;3.4;2.1;;;;;;;13.91;69.08398;1007.198;;;;
2019/09/04 01:52:38;;;;;;;3.8;2.1;;;;;;;13.92;69.16699;1007.193;;;;
2019/09/04 01:55:03;;;;;;;2.8;1.9;;;;;;;14.05;68.5752;1007.147;;;;
2019/09/04 01:57:29;;;;;;;3.4;2.4;;;;;;;13.91;69.07324;1007.135;;;;
2019/09/04 01:59:54;;;;;;;4.5;2.7;;;;;;;13.92;69.18848;1007.062;;;;
2019/09/04 02:02:19;;;;;;;4.4;2.3;;;;;;;13.85;69.30664;1007.058;;;;
2019/09/04 02:04:44;;;;;;;3.8;2.1;;;;;;;13.81;69.55273;1007.032;;;;
2019/09/04 02:07:09;;;;;;;3.5;1.9;;;;;;;13.76;69.76465;1006.979;;;;
2019/09/04 02:09:34;;;;;;;3;2.1;;;;;;;13.76;69.77539;1006.955;;;;
2019/09/04 02:11:59;;;;;;;4.3;2.2;;;;;;;13.7;69.99805;1006.898;;;;
2019/09/04 02:14:24;;;;;;;3.4;2.3;;;;;;;13.62;70.37695;1006.862;;;;
2019/09/04 02:16:50;;;;;;;3.7;1.9;;;;;;;13.61;70.48926;1006.829;;;;
2019/09/04 02:19:15;;;;;;;3.6;1.9;;;;;;;13.56;70.66602;1006.773;;;;
2019/09/04 02:21:40;;;;;;;4.6;2.2;;;;;;;13.45;71.15625;1006.77;;;;
2019/09/04 02:24:05;;;;;;;3.8;2.1;;;;;;;13.4;71.42383;1006.673;;;;
2019/09/04 02:26:30;;;;;;;4.4;2.1;;;;;;;13.43;71.25488;1006.64;;;;
2019/09/04 02:28:55;;;;;;;4.7;2.1;;;;;;;13.47;71.10156;1006.606;;;;
2019/09/04 02:31:20;;;;;;;4.4;2;;;;;;;13.45;71.24805;1006.594;;;;
2019/09/04 02:33:46;;;;;;;3.8;2.2;;;;;;;13.46;71.14551;1006.607;;;;
2019/09/04 02:36:11;;;;;;;3.3;2;;;;;;;13.54;70.65137;1006.568;;;;
2019/09/04 02:38:36;;;;;;;3.8;2;;;;;;;13.48;70.83594;1006.55;;;;
2019/09/04 02:41:01;;;;;;;4.2;2.2;;;;;;;13.46;70.91406;1006.554;;;;
2019/09/04 02:43:26;;;;;;;3.9;2.1;;;;;;;13.45;70.81055;1006.56;;;;
2019/09/04 02:45:52;;;;;;;4.1;2.1;;;;;;;13.46;70.67188;1006.547;;;;
2019/09/04 02:48:17;;;;;;;3.2;2;;;;;;;13.31;71.40918;1006.488;;;;
2019/09/04 02:50:42;;;;;;;2.7;1.9;;;;;;;13.21;71.93359;1006.438;;;;
2019/09/04 02:53:07;;;;;;;5.1;2.3;;;;;;;13.2;71.93262;1006.404;;;;
2019/09/04 02:55:32;;;;;;;3.3;2.2;;;;;;;13.19;71.92969;1006.396;;;;
2019/09/04 02:57:57;;;;;;;2.1;1.9;;;;;;;13.16;72.06348;1006.343;;;;
2019/09/04 03:00:22;;;;;;;5;2.4;;;;;;;13.18;72.1123;1006.35;;;;
2019/09/04 03:02:48;;;;;;;5.1;2.4;;;;;;;13.3;71.69531;1006.384;;;;
2019/09/04 03:05:13;;;;;;;3.9;2.1;;;;;;;13.24;71.74219;1006.381;;;;
2019/09/04 03:07:38;;;;;;;10;4.7;;;;;;;13.12;71.75781;1006.417;;;;
2019/09/04 03:10:03;;;;;;;5.4;3.1;;;;;;;12.98;72.11426;1006.355;;;;
2019/09/04 03:12:28;;;;;;;3.8;2.2;;;;;;;12.95;72.27051;1006.304;;;;
2019/09/04 03:14:53;;;;;;;3.8;2.2;;;;;;;12.94;72.33789;1006.322;;;;
2019/09/04 03:17:18;;;;;;;3.8;2;;;;;;;13;72.13965;1006.307;;;;
2019/09/04 03:19:43;;;;;;;3.3;2;;;;;;;12.97;72.27246;1006.318;;;;
2019/09/04 03:22:09;;;;;;;4.1;2.1;;;;;;;12.88;72.59375;1006.308;;;;
2019/09/04 03:24:34;;;;;;;4;1.9;;;;;;;12.92;72.37988;1006.341;;;;
2019/09/04 03:26:59;;;;;;;7.3;2.1;;;;;;;12.86;72.41699;1006.338;;;;
2019/09/04 03:29:24;;;;;;;3.3;1.9;;;;;;;12.9;72.18066;1006.339;;;;
2019/09/04 03:31:49;;;;;;;3;2.1;;;;;;;12.76;72.75684;1006.369;;;;
2019/09/04 03:34:14;;;;;;;3.8;2.2;;;;;;;12.73;72.89063;1006.341;;;;
2019/09/04 03:36:39;;;;;;;4;2.3;;;;;;;12.68;73.08887;1006.293;;;;
2019/09/04 03:39:04;;;;;;;3.8;2;;;;;;;12.65;73.26855;1006.324;;;;
2019/09/04 03:41:29;;;;;;;4.2;2.1;;;;;;;12.61;73.47949;1006.255;;;;
2019/09/04 03:43:55;;;;;;;4.5;2;;;;;;;12.53;73.72949;1006.211;;;;
2019/09/04 03:46:20;;;;;;;3.8;2.1;;;;;;;12.58;73.69336;1006.209;;;;
2019/09/04 03:48:45;;;;;;;5;2;;;;;;;12.67;73.36328;1006.253;;;;
2019/09/04 03:51:10;;;;;;;3.6;2;;;;;;;12.55;73.66504;1006.25;;;;
2019/09/04 03:53:35;;;;;;;3.6;2.1;;;;;;;12.54;73.80078;1006.238;;;;
2019/09/04 03:56:01;;;;;;;4.2;2.1;;;;;;;12.52;73.91211;1006.129;;;;
2019/09/04 03:58:26;;;;;;;4.6;2.1;;;;;;;12.52;73.98145;1006.177;;;;
2019/09/04 04:02:27;;;;;;;3.2;2;;;;;;;12.57;73.85254;1006.158;;;;
2019/09/04 04:04:52;;;;;;;3.3;1.9;;;;;;;12.6;73.76465;1006.141;;;;
2019/09/04 04:07:17;;;;;;;4;2.2;;;;;;;12.67;73.3877;1006.157;;;;
2019/09/04 04:09:43;;;;;;;3.7;2;;;;;;;12.57;73.66895;1006.152;;;;
2019/09/04 04:12:08;;;;;;;4.7;2.1;;;;;;;12.43;74;1006.11;;;;
2019/09/04 04:14:33;;;;;;;4.9;2.7;;;;;;;12.38;74.22266;1006.105;;;;
2019/09/04 04:16:58;;;;;;;4.2;2.2;;;;;;;12.36;74.38086;1006.064;;;;
2019/09/04 04:19:23;;;;;;;4.5;2.2;;;;;;;12.33;74.57031;1006.083;;;;
2019/09/04 04:21:48;;;;;;;3;2.3;;;;;;;12.32;74.61426;1006.119;;;;
2019/09/04 04:24:13;;;;;;;3.5;2.2;;;;;;;12.24;74.94629;1006.161;;;;
2019/09/04 04:26:38;;;;;;;3.6;2.3;;;;;;;12.18;75.16406;1006.209;;;;
2019/09/04 04:29:03;;;;;;;15.5;2.5;;;;;;;12.17;75.1875;1006.212;;;;
2019/09/04 04:31:29;;;;;;;3.4;2.1;;;;;;;12.26;74.81152;1006.136;;;;
2019/09/04 04:33:54;;;;;;;12.8;3;;;;;;;12.32;74.64844;1006.195;;;;
2019/09/04 04:36:19;;;;;;;10.7;2.3;;;;;;;12.21;74.92871;1006.275;;;;
2019/09/04 04:38:44;;;;;;;4.4;2.2;;;;;;;12.22;75.16016;1006.273;;;;
2019/09/04 04:41:09;;;;;;;4.2;2.1;;;;;;;12.26;74.81152;1006.314;;;;
2019/09/04 04:43:34;;;;;;;4.7;2.5;;;;;;;12.23;74.94336;1006.272;;;;
2019/09/04 04:45:59;;;;;;;3.9;2.1;;;;;;;12.18;75.22266;1006.3;;;;
2019/09/04 04:48:24;;;;;;;5.7;2.5;;;;;;;12.27;74.79004;1006.282;;;;
2019/09/04 04:50:49;;;;;;;4.1;2.2;;;;;;;12.22;74.80371;1006.314;;;;
2019/09/04 04:53:14;;;;;;;4;2.4;;;;;;;12.2;74.9502;1006.302;;;;
2019/09/04 04:55:40;;;;;;;8.2;3.3;;;;;;;12.15;75.125;1006.305;;;;
2019/09/04 04:58:05;;;;;;;7.3;2.5;;;;;;;12.15;75.11328;1006.355;;;;
2019/09/04 05:00:30;;;;;;;9.8;2.3;;;;;;;12.16;75.05957;1006.37;;;;
2019/09/04 05:02:55;;;;;;;3.2;2;;;;;;;12.17;75.08203;1006.319;;;;
2019/09/04 05:05:20;;;;;;;4.8;2.5;;;;;;;12.23;74.85156;1006.345;;;;
2019/09/04 05:07:45;;;;;;;7.1;2.4;;;;;;;12.32;74.46484;1006.257;;;;
2019/09/04 05:10:10;;;;;;;3.4;2;;;;;;;12.41;74.2373;1006.246;;;;
2019/09/04 05:12:35;;;;;;;4.4;2.2;;;;;;;12.39;74.30664;1006.188;;;;
2019/09/04 05:15:00;;;;;;;4.3;2.4;;;;;;;12.43;74.16113;1006.193;;;;
2019/09/04 05:17:25;;;;;;;3.9;2.3;;;;;;;12.41;74.34277;1006.194;;;;
2019/09/04 05:19:50;;;;;;;4.6;2.2;;;;;;;12.61;73.66309;1006.207;;;;
2019/09/04 05:22:16;;;;;;;5.5;2.4;;;;;;;12.52;73.70703;1006.167;;;;
2019/09/04 05:24:41;;;;;;;3.3;2.3;;;;;;;12.48;73.75684;1006.159;;;;
2019/09/04 05:27:06;;;;;;;4.3;2.1;;;;;;;12.53;73.63965;1006.213;;;;
2019/09/04 05:29:31;;;;;;;3.1;2.1;;;;;;;12.57;73.64551;1006.133;;;;
2019/09/04 05:31:56;;;;;;;4.6;2.1;;;;;;;12.72;73.24414;1006.161;;;;
2019/09/04 05:34:21;;;;;;;3.7;1.8;;;;;;;12.81;72.85645;1006.143;;;;
2019/09/04 05:36:46;;;;;;;4.8;2.2;;;;;;;12.78;72.94531;1006.165;;;;
2019/09/04 05:39:11;;;;;;;4.1;2.1;;;;;;;12.76;73.0332;1006.133;;;;
2019/09/04 05:41:36;;;;;;;3.3;2;;;;;;;12.83;72.99805;1006.149;;;;
2019/09/04 05:44:01;;;;;;;6.4;2.3;;;;;;;12.9;72.76953;1006.125;;;;
2019/09/04 05:46:27;;;;;;;6.2;2.3;;;;;;;13.06;72.26563;1006.151;;;;
2019/09/04 05:48:51;;;;;;;8.6;2.7;;;;;;;13.37;70.84277;1006.142;;;;
2019/09/04 05:51:17;;;;;;;5.7;2.1;;;;;;;13.58;69.98926;1006.075;;;;
2019/09/04 05:53:42;;;;;;;6.7;2.6;;;;;;;13.77;69.41797;1006.133;;;;
2019/09/04 05:56:07;;;;;;;6.2;2.6;;;;;;;13.96;68.82813;1006.132;;;;
2019/09/04 05:58:32;;;;;;;6.5;2.7;;;;;;;14.04;68.50488;1006.082;;;;
2019/09/04 06:00:57;;;;;;;4.6;2.6;;;;;;;14.18;68.42383;1006.059;;;;
2019/09/04 06:03:22;;;;;;;8.3;2.9;;;;;;;14.49;67.37402;1006.027;;;;
2019/09/04 06:05:47;;;;;;;7.5;2.5;;;;;;;14.7;66.72559;1006.08;;;;
2019/09/04 06:08:12;;;;;;;8.8;2.8;;;;;;;15.39;64.27148;1006.057;;;;
2019/09/04 06:10:37;;;;;;;7.1;2.5;;;;;;;15.44;64.13965;1006.093;;;;
2019/09/04 06:13:03;;;;;;;5.5;2.2;;;;;;;15.66;63.4082;1006.103;;;;
2019/09/04 06:15:28;;;;;;;4.9;2.4;;;;;;;15.84;62.64648;1006.082;;;;
2019/09/04 06:17:53;;;;;;;7.2;2.8;;;;;;;16.44;60.71289;1006.08;;;;
2019/09/04 06:20:18;;;;;;;8.9;2.5;;;;;;;16.63;59.48535;1006.091;;;;
2019/09/04 06:22:43;;;;;;;7.7;2.6;;;;;;;17.27;57.44434;1006.126;;;;
2019/09/04 06:25:11;;;;;;;4.8;2.2;;;;;;;17.95;55.62305;1006.071;;;;
2019/09/04 06:27:36;;;;;;;5.8;2.2;;;;;;;18.06;54.72949;1006.081;;;;
2019/09/04 06:30:01;;;;;;;5.1;2.1;;;;;;;18.73;51.75684;1006.02;;;;
2019/09/04 06:32:26;;;;;;;6;2.3;;;;;;;18.55;51.73438;1006.047;;;;
2019/09/04 06:34:51;;;;;;;3.9;1.8;;;;;;;17.86;52.95898;1006.055;;;;
2019/09/04 06:37:16;;;;;;;4.6;1.8;;;;;;;17.71;53.58008;1006.024;;;;
2019/09/04 06:39:41;;;;;;;9.1;2.3;;;;;;;18.14;52.72461;1005.983;;;;
2019/09/04 06:42:06;;;;;;;6.4;1.8;;;;;;;18.74;51.01074;1005.935;;;;
2019/09/04 06:44:32;;;;;;;4.5;2;;;;;;;19.22;49.52539;1005.963;;;;
2019/09/04 06:46:56;;;;;;;6.1;1.8;;;;;;;19.92;48.02441;1005.982;;;;
2019/09/04 06:49:21;;;;;;;3.9;1.8;;;;;;;20.72;45.46387;1005.96;;;;
2019/09/04 06:51:47;;;;;;;3.8;1.9;;;;;;;20.44;46.46582;1005.984;;;;
2019/09/04 06:54:12;;;;;;;4.2;2.1;;;;;;;21.34;44.10742;1005.9;;;;
2019/09/04 06:56:37;;;;;;;6.2;3;;;;;;;21.32;44.07031;1005.872;;;;
2019/09/04 06:59:02;;;;;;;3.8;1.8;;;;;;;20.78;45.29297;1005.889;;;;
2019/09/04 07:01:27;;;;;;;6;1.9;;;;;;;21.69;43.27246;1005.85;;;;
2019/09/04 07:03:52;;;;;;;5.7;2.3;;;;;;;21.77;43.12793;1005.839;;;;
2019/09/04 07:06:17;;;;;;;4.7;2;;;;;;;22.23;42.06738;1005.862;;;;
2019/09/04 07:08:42;;;;;;;4.6;1.8;;;;;;;22.68;41.59277;1005.866;;;;
2019/09/04 07:11:07;;;;;;;5.8;2.1;;;;;;;22.88;40.96387;1005.859;;;;
2019/09/04 07:13:32;;;;;;;7.2;2.2;;;;;;;23.2;40.14453;1005.834;;;;
2019/09/04 07:15:58;;;;;;;8.4;2.2;;;;;;;23.66;39.37305;1005.818;;;;
2019/09/04 07:18:23;;;;;;;10.2;2.7;;;;;;;24.34;38.23828;1005.877;;;;
2019/09/04 07:20:48;;;;;;;53.5;4.5;;;;;;;24.96;37.09766;1005.813;;;;
2019/09/04 07:23:13;;;;;;;11.1;2.6;;;;;;;25.13;36.6377;1005.786;;;;
2019/09/04 07:25:38;;;;;;;5.4;2.2;;;;;;;27.21;32.6709;1005.8;;;;
2019/09/04 07:28:03;;;;;;;17.1;2.9;;;;;;;26.42;34.02637;1005.783;;;;
2019/09/04 07:30:28;;;;;;;6.6;2.6;;;;;;;27.43;32.33105;1005.779;;;;
2019/09/04 07:32:53;;;;;;;7;3.2;;;;;;;26.32;33.74512;1005.79;;;;
2019/09/04 07:35:19;;;;;;;4.8;2.6;;;;;;;26.51;33.83105;1005.79;;;;
2019/09/04 07:37:44;;;;;;;6.6;3.1;;;;;;;27.47;32.07129;1005.704;;;;
2019/09/04 07:40:09;;;;;;;4;2.1;;;;;;;27.7;31.60059;1005.695;;;;
2019/09/04 07:42:34;;;;;;;3.8;2.1;;;;;;;27.94;31.43848;1005.671;;;;
2019/09/04 07:45:00;;;;;;;3.8;2;;;;;;;27.96;31.08203;1005.654;;;;
2019/09/04 07:47:25;;;;;;;3.8;2.1;;;;;;;27.99;30.94141;1005.587;;;;
2019/09/04 07:49:50;;;;;;;4.5;1.9;;;;;;;26.68;33.34473;1005.532;;;;
2019/09/04 07:52:15;;;;;;;4.1;2;;;;;;;26.55;33.27734;1005.544;;;;
2019/09/04 07:54:40;;;;;;;5.1;1.9;;;;;;;27.55;31.91113;1005.498;;;;
2019/09/04 07:57:05;;;;;;;23.5;3;;;;;;;27.93;31.16309;1005.482;;;;
2019/09/04 07:59:30;;;;;;;13.2;2.6;;;;;;;28.69;30.52441;1005.481;;;;
2019/09/04 08:01:55;;;;;;;11.5;2.5;;;;;;;28.55;30.24023;1005.454;;;;
2019/09/04 08:04:21;;;;;;;30.4;3.6;;;;;;;28.64;30.62793;1005.462;;;;
2019/09/04 08:06:46;;;;;;;13.8;3.1;;;;;;;29.56;29.26855;1005.44;;;;
2019/09/04 08:09:11;;;;;;;7.7;1.9;;;;;;;29.3;29.63477;1005.442;;;;
2019/09/04 08:11:36;;;;;;;5.8;2.1;;;;;;;30.11;28.49023;1005.44;;;;
2019/09/04 08:14:01;;;;;;;6.4;2.3;;;;;;;28.13;31.71289;1005.456;;;;
2019/09/04 08:16:26;;;;;;;5;2.6;;;;;;;28.65;30.95117;1005.486;;;;
2019/09/04 08:18:51;;;;;;;6;2.2;;;;;;;29.12;30.18359;1005.421;;;;
2019/09/04 08:21:16;;;;;;;4.4;2.1;;;;;;;30.38;28.47266;1005.369;;;;
2019/09/04 08:23:42;;;;;;;4.7;2.4;;;;;;;30.44;28.11621;1005.372;;;;
2019/09/04 08:26:07;;;;;;;5.8;2.2;;;;;;;28.9;30.59863;1005.352;;;;
2019/09/04 08:28:32;;;;;;;10.8;2.2;;;;;;;29.21;30.03418;1005.343;;;;
2019/09/04 08:30:57;;;;;;;7.9;2.4;;;;;;;28.47;31.2959;1005.353;;;;
2019/09/04 08:33:22;;;;;;;5.9;2.3;;;;;;;28.7;31.25195;1005.321;;;;
2019/09/04 08:35:48;;;;;;;6.5;2.1;;;;;;;28.5;31.7041;1005.345;;;;
2019/09/04 08:38:13;;;;;;;5.5;2.3;;;;;;;29.45;29.93164;1005.25;;;;
2019/09/04 08:40:38;;;;;;;4.2;2.2;;;;;;;28.61;31.41406;1005.335;;;;
2019/09/04 08:43:03;;;;;;;6.6;2.1;;;;;;;29.75;29.74707;1005.22;;;;
2019/09/04 08:45:28;;;;;;;5.5;2.3;;;;;;;30.36;28.83008;1005.197;;;;
2019/09/04 08:47:54;;;;;;;6.3;2.2;;;;;;;30.3;28.72949;1005.198;;;;
2019/09/04 08:50:19;;;;;;;6.9;2.7;;;;;;;30.11;28.79004;1005.125;;;;
2019/09/04 08:52:44;;;;;;;4.7;2.2;;;;;;;29.9;29.38672;1005.075;;;;
2019/09/04 08:55:09;;;;;;;4.2;2;;;;;;;30.29;28.51367;1005.017;;;;
2019/09/04 08:57:34;;;;;;;3.9;2.1;;;;;;;30.86;27.74707;1005.024;;;;
2019/09/04 08:59:59;;;;;;;4.4;2.3;;;;;;;28.93;29.83691;1005.022;;;;
2019/09/04 09:02:24;;;;;;;6.4;2.2;;;;;;;29.04;29.58105;1004.993;;;;
2019/09/04 09:04:49;;;;;;;5.9;1.9;;;;;;;28.65;29.85352;1004.967;;;;
2019/09/04 09:07:14;;;;;;;5.5;2;;;;;;;29.16;28.47852;1004.943;;;;
2019/09/04 09:09:41;;;;;;;7.3;2.3;;;;;;;28.66;29.37695;1004.934;;;;
2019/09/04 09:12:05;;;;;;;5.6;1.9;;;;;;;29.41;28.49414;1004.883;;;;
2019/09/04 09:14:30;;;;;;;4.4;2;;;;;;;28.64;29.4248;1004.905;;;;
2019/09/04 09:16:55;;;;;;;6.1;2;;;;;;;29.93;27.88086;1004.83;;;;
2019/09/04 09:19:20;;;;;;;5.2;2;;;;;;;29.25;28.46094;1004.831;;;;
2019/09/04 09:21:45;;;;;;;4.2;1.8;;;;;;;29.55;27.76172;1004.813;;;;
2019/09/04 09:24:11;;;;;;;5.2;2.3;;;;;;;29.8;27.58594;1004.767;;;;
2019/09/04 09:26:36;;;;;;;7.7;2.3;;;;;;;30.25;26.85938;1004.783;;;;
2019/09/04 09:29:01;;;;;;;5.1;2;;;;;;;30.67;26.62109;1004.75;;;;
2019/09/04 09:31:26;;;;;;;5.4;1.9;;;;;;;29.36;29.32715;1004.709;;;;
2019/09/04 09:33:51;;;;;;;4.9;2.2;;;;;;;30.03;28.72461;1004.666;;;;
2019/09/04 09:36:17;;;;;;;3.6;2.2;;;;;;;30.43;28.28418;1004.607;;;;
2019/09/04 09:38:42;;;;;;;4;2;;;;;;;31.44;27.24219;1004.586;;;;
2019/09/04 09:41:07;;;;;;;4;1.9;;;;;;;31.48;26.58496;1004.557;;;;
2019/09/04 09:43:32;;;;;;;4.8;2.5;;;;;;;32.62;25.17188;1004.57;;;;
2019/09/04 09:45:57;;;;;;;5.5;2;;;;;;;30.71;27.57031;1004.517;;;;
2019/09/04 09:48:22;;;;;;;4.3;2;;;;;;;30.42;27.99512;1004.453;;;;
2019/09/04 09:50:47;;;;;;;3.2;2;;;;;;;29.66;28.72559;1004.425;;;;
2019/09/04 09:53:13;;;;;;;4.4;2.1;;;;;;;30.84;27.29004;1004.399;;;;
2019/09/04 09:55:38;;;;;;;4;1.9;;;;;;;29.61;28.54297;1004.337;;;;
2019/09/04 09:58:03;;;;;;;6;1.6;;;;;;;29.84;28.38965;1004.333;;;;
2019/09/04 10:00:28;;;;;;;4.3;1.7;;;;;;;31.02;26.72559;1004.317;;;;
2019/09/04 10:02:53;;;;;;;3.6;1.7;;;;;;;30.22;27.68359;1004.264;;;;
2019/09/04 10:05:19;;;;;;;5.8;1.9;;;;;;;30.48;27.00488;1004.191;;;;
2019/09/04 10:07:44;;;;;;;4.6;1.7;;;;;;;30.43;27.03809;1004.178;;;;
2019/09/04 10:10:09;;;;;;;3.7;2;;;;;;;29.71;27.83203;1004.129;;;;
2019/09/04 10:12:34;;;;;;;3.5;1.9;;;;;;;29.47;28.43848;1004.143;;;;
2019/09/04 10:14:59;;;;;;;6;1.9;;;;;;;29.63;28.11328;1004.13;;;;
2019/09/04 10:17:24;;;;;;;4.1;1.8;;;;;;;29.06;29.37988;1004.075;;;;
2019/09/04 10:19:50;;;;;;;3.5;1.4;;;;;;;30.24;27.48145;1004.068;;;;
2019/09/04 10:22:15;;;;;;;3;1.9;;;;;;;29.13;29.09766;1004.047;;;;
2019/09/04 10:24:40;;;;;;;4.7;1.6;;;;;;;28.56;29.82422;1004.035;;;;
2019/09/04 10:27:05;;;;;;;2.4;1.4;;;;;;;29.04;29.37793;1003.945;;;;
2019/09/04 10:29:30;;;;;;;4.7;1.8;;;;;;;29.53;29.00488;1003.889;;;;
2019/09/04 10:31:55;;;;;;;3.7;1.6;;;;;;;29.29;29.27539;1003.785;;;;
2019/09/04 10:34:21;;;;;;;6.8;1.7;;;;;;;29.14;29.30078;1003.698;;;;
2019/09/04 10:36:46;;;;;;;6.2;1.7;;;;;;;29.39;29.11426;1003.733;;;;
2019/09/04 10:39:11;;;;;;;4.3;1.8;;;;;;;29.19;29.49512;1003.703;;;;
2019/09/04 10:41:36;;;;;;;3.7;1.9;;;;;;;29.49;29.2998;1003.68;;;;
2019/09/04 10:44:01;;;;;;;3;1.4;;;;;;;29.41;29.23535;1003.679;;;;
2019/09/04 10:46:26;;;;;;;3.1;1.6;;;;;;;28.2;29.7998;1003.62;;;;
2019/09/04 10:48:52;;;;;;;2.8;1.7;;;;;;;28.02;29.9668;1003.567;;;;
2019/09/04 10:51:17;;;;;;;3.2;1.5;;;;;;;27.03;31.9209;1003.559;;;;
2019/09/04 10:53:42;;;;;;;3.7;1.5;;;;;;;27.37;30.89844;1003.521;;;;
2019/09/04 10:56:07;;;;;;;5;1.6;;;;;;;27.51;30.07617;1003.503;;;;
2019/09/04 10:58:32;;;;;;;2.5;1.2;;;;;;;26.96;30.32422;1003.414;;;;
2019/09/04 11:00:58;;;;;;;3.1;1.6;;;;;;;26.96;30.37109;1003.392;;;;
2019/09/04 11:03:22;;;;;;;5.3;1.7;;;;;;;26.56;31.1875;1003.339;;;;
2019/09/04 11:05:48;;;;;;;3.3;2.3;;;;;;;26.78;31.03711;1003.331;;;;
2019/09/04 11:08:13;;;;;;;2.2;1.6;;;;;;;26.4;32.31641;1003.253;;;;
2019/09/04 11:10:38;;;;;;;4.8;1.5;;;;;;;26.57;31.88867;1003.201;;;;
2019/09/04 11:13:03;;;;;;;3.8;1.5;;;;;;;26.5;31.53906;1003.192;;;;
2019/09/04 11:15:28;;;;;;;3.4;1.5;;;;;;;26.34;31.18457;1003.181;;;;
2019/09/04 11:17:53;;;;;;;3.6;1.6;;;;;;;26.55;30.91406;1003.155;;;;
2019/09/04 11:20:19;;;;;;;1.6;1.1;;;;;;;26.52;30.72168;1003.11;;;;
2019/09/04 11:22:44;;;;;;;1.8;1.3;;;;;;;26.73;30.65234;1003.043;;;;
2019/09/04 11:25:09;;;;;;;3;1.4;;;;;;;26.82;30.81348;1002.998;;;;
2019/09/04 11:27:34;;;;;;;3.7;1.5;;;;;;;26.91;30.25;1002.976;;;;
2019/09/04 11:29:59;;;;;;;1.8;1.2;;;;;;;26.94;30.04883;1002.951;;;;
2019/09/04 11:32:24;;;;;;;6.8;1.4;;;;;;;26.83;29.70898;1002.86;;;;
2019/09/04 11:34:49;;;;;;;3.4;1.2;;;;;;;27.11;29.40723;1002.8;;;;
2019/09/04 11:37:15;;;;;;;2.7;1.3;;;;;;;27.46;28.83496;1002.794;;;;
2019/09/04 11:39:40;;;;;;;4.5;1.4;;;;;;;27.11;29.66895;1002.809;;;;
2019/09/04 11:42:05;;;;;;;3.9;1.4;;;;;;;27.29;28.43164;1002.753;;;;
2019/09/04 11:44:30;;;;;;;2.4;1.2;;;;;;;27.3;28.51563;1002.702;;;;
2019/09/04 11:46:55;;;;;;;2.5;1.4;;;;;;;27.37;28.60352;1002.7;;;;
2019/09/04 11:49:21;;;;;;;2.7;1.4;;;;;;;27.49;28.4082;1002.592;;;;
2019/09/04 11:51:46;;;;;;;3.6;1.6;;;;;;;27.07;29.80859;1002.567;;;;
2019/09/04 11:54:11;;;;;;;2.6;1.6;;;;;;;27.39;29.00879;1002.595;;;;
2019/09/04 11:56:36;;;;;;;3.9;1.3;;;;;;;27.26;28.65625;1002.536;;;;
2019/09/04 11:59:02;;;;;;;2.8;1.3;;;;;;;26.81;28.81738;1002.549;;;;
2019/09/04 12:01:27;;;;;;;4.8;1.5;;;;;;;26.82;29.04395;1002.491;;;;
2019/09/04 12:03:52;;;;;;;4.4;1.4;;;;;;;27.03;28.96191;1002.444;;;;
2019/09/04 12:06:17;;;;;;;6.1;1.5;;;;;;;27.01;28.73535;1002.43;;;;
2019/09/04 12:08:42;;;;;;;3.3;1.5;;;;;;;26.94;28.75391;1002.386;;;;
2019/09/04 12:11:08;;;;;;;3.3;1.4;;;;;;;26.96;29.10059;1002.342;;;;
2019/09/04 12:13:33;;;;;;;5.5;1.4;;;;;;;26.95;29.15918;1002.328;;;;
2019/09/04 12:15:58;;;;;;;2.1;1.3;;;;;;;27.11;28.99121;1002.248;;;;
2019/09/04 12:18:23;;;;;;;2.4;1.2;;;;;;;27.11;29.19336;1002.28;;;;
2019/09/04 12:20:48;;;;;;;3.7;1.5;;;;;;;26.55;30.23633;1002.224;;;;
2019/09/04 12:23:13;;;;;;;2.2;1.3;;;;;;;26.71;30.0459;1002.167;;;;
2019/09/04 12:25:38;;;;;;;5.6;1.6;;;;;;;26.98;29.5293;1002.074;;;;
2019/09/04 12:28:03;;;;;;;5.5;2;;;;;;;26.82;29.89844;1002.044;;;;
2019/09/04 12:30:29;;;;;;;9.4;3.4;;;;;;;26.83;30.45801;1001.991;;;;
2019/09/04 12:32:54;;;;;;;5.8;2.1;;;;;;;26.71;30.50879;1001.988;;;;
2019/09/04 12:35:19;;;;;;;4.1;1.5;;;;;;;26.83;30.13672;1001.894;;;;
2019/09/04 12:37:45;;;;;;;5;1.6;;;;;;;26.63;29.96973;1001.882;;;;
2019/09/04 12:40:10;;;;;;;5.7;2.1;;;;;;;26.41;29.82422;1001.892;;;;
2019/09/04 12:42:35;;;;;;;2.6;1.4;;;;;;;26.53;29.77344;1001.775;;;;
2019/09/04 12:45:00;;;;;;;8.9;2.7;;;;;;;26.49;30.38672;1001.813;;;;
2019/09/04 12:47:25;;;;;;;10.1;2.4;;;;;;;26.74;30.1543;1001.733;;;;
2019/09/04 12:49:50;;;;;;;6.5;2;;;;;;;26.82;29.61426;1001.705;;;;
2019/09/04 12:52:15;;;;;;;3.7;2;;;;;;;26.82;29.92285;1001.701;;;;
2019/09/04 12:54:40;;;;;;;2.4;1.3;;;;;;;26.67;29.05762;1001.62;;;;
2019/09/04 12:57:06;;;;;;;3.1;1.3;;;;;;;26.7;29.11914;1001.618;;;;
2019/09/04 12:59:31;;;;;;;3.9;1.2;;;;;;;26.75;29.22852;1001.642;;;;
2019/09/04 13:01:56;;;;;;;2.7;1.3;;;;;;;26.96;28.41113;1001.62;;;;
2019/09/04 13:04:21;;;;;;;3.7;1.4;;;;;;;27.01;28.71094;1001.651;;;;
2019/09/04 13:06:46;;;;;;;3.6;1.1;;;;;;;26.97;27.8418;1001.577;;;;
2019/09/04 13:09:11;;;;;;;5.6;1.5;;;;;;;27.06;28.70313;1001.477;;;;
2019/09/04 13:11:36;;;;;;;4.6;1.4;;;;;;;27.13;28.6709;1001.414;;;;
2019/09/04 13:14:02;;;;;;;4;1.4;;;;;;;27.25;28.34668;1001.41;;;;
2019/09/04 13:16:28;;;;;;;6.5;1.2;;;;;;;27.18;27.4502;1001.41;;;;
2019/09/04 13:18:51;;;;;;;3.9;1.2;;;;;;;27.23;27.67969;1001.338;;;;
2019/09/04 13:21:17;;;;;;;2.5;1;;;;;;;27.3;27.50488;1001.345;;;;
2019/09/04 13:23:42;;;;;;;8.9;2.7;;;;;;;27.19;27.15332;1001.261;;;;
2019/09/04 13:26:07;;;;;;;3.1;1.1;;;;;;;27.19;26.8916;1001.276;;;;
2019/09/04 13:28:32;;;;;;;5.1;1.3;;;;;;;27.05;26.72949;1001.248;;;;
2019/09/04 13:30:57;;;;;;;6.2;1.4;;;;;;;27.15;27.24609;1001.278;;;;
2019/09/04 13:33:23;;;;;;;3.9;1.5;;;;;;;27.14;27.62598;1001.267;;;;
2019/09/04 13:35:48;;;;;;;3.9;1.4;;;;;;;27.33;28.28027;1001.205;;;;
2019/09/04 13:38:13;;;;;;;4.9;1.4;;;;;;;27.31;28.63477;1001.269;;;;
2019/09/04 13:40:39;;;;;;;2.1;1.4;;;;;;;27.33;28.91016;1001.185;;;;
2019/09/04 13:43:03;;;;;;;2.3;1.2;;;;;;;27.26;29.14355;1001.23;;;;
2019/09/04 13:45:28;;;;;;;2.7;1.2;;;;;;;27.19;29.24609;1001.193;;;;
2019/09/04 13:47:53;;;;;;;2;1.1;;;;;;;27.2;29.06836;1001.213;;;;
2019/09/04 13:50:18;;;;;;;3.6;1.3;;;;;;;27.04;29.63965;1001.162;;;;
2019/09/04 13:52:43;;;;;;;3.7;1.4;;;;;;;27.15;29.9209;1001.138;;;;
2019/09/04 13:55:09;;;;;;;6.6;1.6;;;;;;;27.24;29.87988;1001.101;;;;
2019/09/04 13:57:34;;;;;;;3.4;1.3;;;;;;;27.28;29.88184;1001.084;;;;
2019/09/04 14:00:00;;;;;;;1.9;1.2;;;;;;;27.19;29.95898;1001.026;;;;
2019/09/04 14:02:25;;;;;;;2.3;1;;;;;;;27.1;29.88184;1000.939;;;;
2019/09/04 14:04:50;;;;;;;3.8;1.3;;;;;;;27.25;30.50977;1001.011;;;;
2019/09/04 14:07:15;;;;;;;3.1;1.2;;;;;;;27.13;30.58594;1000.983;;;;
2019/09/04 14:09:40;;;;;;;3.8;1.3;;;;;;;27.1;31.05957;1000.925;;;;
2019/09/04 14:12:05;;;;;;;7;1.3;;;;;;;27.19;30.95801;1000.857;;;;
2019/09/04 14:14:30;;;;;;;4.3;1.6;;;;;;;27.25;30.87891;1000.794;;;;